createdAt,value
2022-12-03T00:00:55.711Z,98416.94
2022-12-03T00:05:57.085Z,98419.34
2022-12-03T00:10:58.466Z,98414.09
2022-12-03T00:15:59.880Z,98409.66
2022-12-03T00:21:01.288Z,98408.59
2022-12-03T00:26:02.722Z,98410.59
2022-12-03T00:31:04.308Z,98402.59
2022-12-03T00:36:06.139Z,98406.19
2022-12-03T00:41:07.558Z,98401.84
2022-12-03T00:46:09.007Z,98404.50
2022-12-03T00:51:10.411Z,98394.19
2022-12-03T00:56:11.828Z,98397.34
2022-12-03T01:01:13.351Z,98396.38
2022-12-03T01:06:14.788Z,98401.41
2022-12-03T01:11:34.836Z,98396.97
2022-12-03T01:16:36.633Z,98388.84
2022-12-03T01:21:38.200Z,98394.19
2022-12-03T01:26:39.782Z,98398.53
2022-12-03T01:31:59.603Z,98384.84
2022-12-03T01:37:00.995Z,98389.38
2022-12-03T01:42:02.947Z,98384.13
2022-12-03T01:47:07.179Z,98384.84
2022-12-03T01:52:32.243Z,98382.09
2022-12-03T01:57:50.060Z,98387.47
2022-12-03T02:02:57.736Z,98381.69
2022-12-03T02:08:00.023Z,98379.28
2022-12-03T02:13:03.483Z,98375.00
2022-12-03T02:18:05.698Z,98372.38
2022-12-03T02:23:13.078Z,98381.59
2022-12-03T02:28:14.699Z,98382.22
2022-12-03T02:33:16.242Z,98371.56
2022-12-03T02:38:21.394Z,98376.84
2022-12-03T02:43:24.054Z,98362.84
2022-12-03T02:48:33.471Z,98371.69
2022-12-03T02:53:42.126Z,98372.66
2022-12-03T02:58:46.865Z,98376.97
2022-12-03T03:03:49.710Z,98373.38
2022-12-03T03:08:51.632Z,98378.41
2022-12-03T03:13:53.115Z,98372.00
2022-12-03T03:18:54.810Z,98378.19
2022-12-03T03:23:56.247Z,98379.88
2022-12-03T03:28:59.902Z,98376.91
2022-12-03T03:34:01.375Z,98375.84
2022-12-03T03:39:05.095Z,98367.22
2022-12-03T03:44:08.186Z,98355.75
2022-12-03T03:49:10.473Z,98365.53
2022-12-03T03:54:12.475Z,98365.53
2022-12-03T03:59:14.491Z,98369.34
2022-12-03T04:04:20.702Z,98363.91
2022-12-03T04:09:22.164Z,98363.06
2022-12-03T04:14:23.562Z,98363.81
2022-12-03T04:19:24.935Z,98363.59
2022-12-03T04:24:26.392Z,98360.00
2022-12-03T04:29:27.768Z,98351.03
2022-12-03T04:34:48.270Z,98356.19
2022-12-03T04:39:49.756Z,98354.03
2022-12-03T04:44:51.247Z,98357.50
2022-12-03T04:49:52.811Z,98360.78
2022-12-03T04:54:54.477Z,98359.81
2022-12-03T04:59:55.968Z,98355.06
2022-12-03T05:04:58.243Z,98349.66
2022-12-03T05:09:59.651Z,98351.47
2022-12-03T05:15:01.043Z,98345.97
2022-12-03T05:20:21.074Z,98344.41
2022-12-03T05:25:22.429Z,98335.69
2022-12-03T05:30:23.875Z,98339.97
2022-12-03T05:35:26.128Z,98331.38
2022-12-03T05:40:27.519Z,98333.03
2022-12-03T05:45:32.534Z,98334.72
2022-12-03T05:50:36.100Z,98334.72
2022-12-03T05:55:48.391Z,98330.19
2022-12-03T06:00:49.755Z,98331.97
2022-12-03T06:05:51.116Z,98331.97
2022-12-03T06:10:52.562Z,98325.88
2022-12-03T06:15:53.972Z,98328.75
2022-12-03T06:20:55.364Z,98331.25
2022-12-03T06:25:56.798Z,98338.09
2022-12-03T06:30:58.297Z,98335.56
2022-12-03T06:35:59.731Z,98335.69
2022-12-03T06:41:01.091Z,98332.81
2022-12-03T06:46:02.526Z,98334.72
2022-12-03T06:51:04.058Z,98338.78
2022-12-03T06:56:05.783Z,98332.81
2022-12-03T07:01:07.211Z,98343.34
2022-12-03T07:06:08.767Z,98347.78
2022-12-03T07:11:30.230Z,98335.44
2022-12-03T07:16:31.655Z,98341.53
2022-12-03T07:21:33.206Z,98345.75
2022-12-03T07:26:34.592Z,98347.91
2022-12-03T07:31:36.087Z,98344.31
2022-12-03T07:36:37.647Z,98342.66
2022-12-03T07:41:39.107Z,98341.38
2022-12-03T07:46:40.930Z,98342.91
2022-12-03T07:51:44.014Z,98343.63
2022-12-03T07:56:45.370Z,98341.84
2022-12-03T08:01:46.771Z,98348.91
2022-12-03T08:06:48.702Z,98343.16
2022-12-03T08:11:50.085Z,98340.81
2022-12-03T08:16:51.504Z,98348.34
2022-12-03T08:21:57.988Z,98340.09
2022-12-03T08:27:02.427Z,98327.41
2022-12-03T08:32:06.674Z,98327.75
2022-12-03T08:37:18.727Z,98320.59
2022-12-03T08:42:43.857Z,98331.72
2022-12-03T08:47:45.400Z,98329.59
2022-12-03T08:52:46.771Z,98337.94
2022-12-03T08:57:48.258Z,98341.31
2022-12-03T09:02:52.354Z,98338.09
2022-12-03T09:07:53.881Z,98339.16
2022-12-03T09:12:55.433Z,98339.63
2022-12-03T09:17:56.883Z,98334.97
2022-12-03T09:22:58.257Z,98342.53
2022-12-03T09:27:59.692Z,98328.84
2022-12-03T09:33:01.932Z,98327.88
2022-12-03T09:38:03.469Z,98331.00
2022-12-03T09:43:05.881Z,98326.66
2022-12-03T09:48:07.488Z,98333.50
2022-12-03T09:53:14.454Z,98333.88
2022-12-03T09:58:18.210Z,98330.28
2022-12-03T10:03:29.697Z,98322.00
2022-12-03T10:56:52.419Z,98284.38
2022-12-03T11:01:54.057Z,98293.84
2022-12-03T11:06:55.624Z,98289.03
2022-12-03T11:12:04.807Z,98285.63
2022-12-03T11:17:07.811Z,98280.25
2022-12-03T11:22:12.166Z,98273.19
2022-12-03T11:27:19.110Z,98259.94
2022-12-03T11:32:38.886Z,98263.38
2022-12-03T11:38:36.600Z,98262.25
2022-12-03T11:43:53.382Z,98254.06
2022-12-03T11:48:57.527Z,98261.59
2022-12-03T11:54:00.403Z,98255.94
2022-12-03T11:59:04.305Z,98252.44
2022-12-03T12:04:07.127Z,98246.66
2022-12-03T12:09:08.659Z,98250.41
2022-12-03T12:14:12.380Z,98241.38
2022-12-03T12:19:32.267Z,98241.13
2022-12-03T12:24:46.783Z,98232.38
2022-12-03T12:29:54.967Z,98232.78
2022-12-03T12:35:12.331Z,98216.34
2022-12-03T12:40:15.746Z,98217.44
2022-12-03T12:45:20.351Z,98207.97
2022-12-03T12:50:21.722Z,98204.75
2022-12-03T12:55:24.348Z,98187.38
2022-12-03T13:00:25.759Z,98195.41
2022-12-03T13:05:38.445Z,98187.88
2022-12-03T13:10:41.815Z,98195.34
2022-12-03T13:16:01.585Z,98186.75
2022-12-03T13:21:23.192Z,98191.44
2022-12-03T13:26:39.511Z,98179.09
2022-12-03T13:31:47.724Z,98178.09
2022-12-03T13:36:57.001Z,98188.16
2022-12-03T13:42:38.186Z,98187.16
2022-12-03T13:47:49.890Z,98188.16
2022-12-03T13:52:52.779Z,98185.09
2022-12-03T13:57:55.114Z,98179.56
2022-12-03T14:02:56.481Z,98187.63
2022-12-03T14:07:58.223Z,98183.19
2022-12-03T14:12:59.754Z,98181.38
2022-12-03T14:18:02.208Z,98186.91
2022-12-03T14:23:03.589Z,98179.00
2022-12-03T14:28:08.521Z,98180.94
2022-12-03T14:33:09.926Z,98180.81
2022-12-03T14:38:11.294Z,98173.97
2022-12-03T14:43:12.763Z,98179.50
2022-12-03T14:48:14.131Z,98179.50
2022-12-03T14:53:15.492Z,98177.84
2022-12-03T14:58:16.877Z,98181.72
2022-12-03T15:03:18.794Z,98183.63
2022-12-03T15:15:20.356Z,98183.44
2022-12-03T15:20:21.761Z,98183.19
2022-12-03T15:25:25.496Z,98175.16
2022-12-03T15:30:27.037Z,98182.09
2022-12-03T15:35:30.149Z,98181.16
2022-12-03T15:40:31.692Z,98186.41
2022-12-03T15:45:33.703Z,98184.88
2022-12-03T15:50:39.963Z,98187.75
2022-12-03T15:55:41.756Z,98173.59
2022-12-03T16:00:43.120Z,98174.56
2022-12-03T16:05:44.485Z,98174.56
2022-12-03T16:10:45.979Z,98176.13
2022-12-03T16:15:47.533Z,98171.69
2022-12-03T16:20:49.082Z,98173.47
2022-12-03T16:25:50.523Z,98172.75
2022-12-03T16:30:51.979Z,98179.69
2022-12-03T16:35:53.414Z,98168.31
2022-12-03T16:40:54.831Z,98156.69
2022-12-03T16:45:56.506Z,98171.41
2022-12-03T16:50:57.997Z,98148.63
2022-12-03T16:55:59.382Z,98164.19
2022-12-03T17:01:00.751Z,98158.91
2022-12-03T17:06:02.872Z,98160.03
2022-12-03T17:11:04.465Z,98159.19
2022-12-03T17:16:06.852Z,98165.44
2022-12-03T17:21:08.352Z,98159.19
2022-12-03T17:26:09.753Z,98157.97
2022-12-03T17:31:11.925Z,98147.28
2022-12-03T17:36:13.364Z,98148.09
2022-12-03T17:41:14.787Z,98146.69
2022-12-03T17:46:16.177Z,98137.97
2022-12-03T17:51:19.158Z,98137.56
2022-12-03T17:56:20.658Z,98133.25
2022-12-03T18:01:22.038Z,98129.91
2022-12-03T18:06:23.812Z,98132.41
2022-12-03T18:11:27.270Z,98121.97
2022-12-03T18:16:29.186Z,98126.56
2022-12-03T18:21:30.648Z,98130.41
2022-12-03T18:26:32.038Z,98131.13
2022-12-03T18:31:33.553Z,98138.06
2022-12-03T18:36:36.275Z,98128.69
2022-12-03T18:41:37.646Z,98135.25
2022-12-03T18:46:54.447Z,98129.69
2022-12-03T18:51:59.513Z,98123.56
2022-12-03T18:57:01.277Z,98123.72
2022-12-03T19:02:03.321Z,98126.78
2022-12-03T19:07:04.946Z,98129.56
2022-12-03T19:12:14.234Z,98134.03
2022-12-03T19:17:16.074Z,98125.53
2022-12-03T19:22:17.456Z,98130.25
2022-12-03T19:27:19.086Z,98124.81
2022-12-03T19:32:20.454Z,98134.28
2022-12-03T19:37:21.814Z,98133.19
2022-12-03T19:42:23.170Z,98130.41
2022-12-03T19:47:24.618Z,98127.66
2022-12-03T19:52:26.059Z,98130.97
2022-12-03T19:57:28.195Z,98137.81
2022-12-03T20:02:29.770Z,98135.72
2022-12-03T20:07:31.298Z,98137.44
2022-12-03T20:12:32.906Z,98133.81
2022-12-03T20:17:34.324Z,98130.19
2022-12-03T20:22:35.719Z,98123.25
2022-12-03T20:27:37.107Z,98121.34
2022-12-03T20:32:43.698Z,98126.59
2022-12-03T20:37:46.766Z,98125.91
2022-12-03T20:42:48.282Z,98112.69
2022-12-03T20:47:49.731Z,98104.91
2022-12-03T20:53:16.155Z,98116.56
2022-12-03T20:58:12.636Z,98107.94
2022-12-03T21:03:14.059Z,98105.41
2022-12-03T21:08:15.511Z,98117.22
2022-12-03T21:13:18.146Z,98098.88
2022-12-03T21:18:19.507Z,98104.28
2022-12-03T21:23:20.887Z,98103.59
2022-12-03T21:28:22.269Z,98099.84
2022-12-03T21:33:23.667Z,98092.63
2022-12-03T21:38:25.866Z,98093.19
2022-12-03T21:43:28.285Z,98096.41
2022-12-03T21:48:29.696Z,98097.38
2022-12-03T21:53:32.711Z,98095.31
2022-12-03T21:58:34.443Z,98090.59
2022-12-03T22:03:35.796Z,98098.53
2022-12-03T22:08:37.492Z,98099.22
2022-12-03T22:13:40.104Z,98101.88
2022-12-03T22:18:41.786Z,98090.34
2022-12-03T22:23:43.435Z,98095.75
2022-12-03T22:28:47.188Z,98089.91
2022-12-03T22:33:49.520Z,98091.84
2022-12-03T22:38:51.043Z,98088.50
2022-12-03T22:43:52.624Z,98092.38
2022-12-03T22:48:54.041Z,98086.13
2022-12-03T22:53:56.982Z,98078.19
2022-12-03T22:58:59.311Z,98068.47
2022-12-03T23:04:01.479Z,98066.97
2022-12-03T23:09:04.468Z,98048.47
2022-12-03T23:14:05.865Z,98054.72
2022-12-03T23:19:07.407Z,98057.91
2022-12-03T23:24:10.027Z,98047.81
2022-12-03T23:29:11.410Z,98044.34
2022-12-03T23:34:12.821Z,98041.97
2022-12-03T23:39:14.263Z,98036.81
2022-12-03T23:44:15.651Z,98031.94
2022-12-03T23:49:17.043Z,98036.66
2022-12-03T23:54:18.416Z,98033.19
2022-12-03T23:59:19.788Z,98034.84
